createdAt,value
2022-12-13T00:01:27.846Z,-2.99
2022-12-13T00:03:56.601Z,-3.15
2022-12-13T00:06:23.471Z,-3.35
2022-12-13T00:08:50.326Z,-3.36
2022-12-13T00:11:17.985Z,-3.47
2022-12-13T00:13:46.694Z,-3.58
2022-12-13T00:16:16.691Z,-3.54
2022-12-13T00:18:44.093Z,-3.55
2022-12-13T00:21:17.044Z,-3.58
2022-12-13T00:23:43.979Z,-3.77
2022-12-13T00:26:15.036Z,-3.84
2022-12-13T00:28:42.609Z,-3.86
2022-12-13T00:31:44.644Z,-3.88
2022-12-13T00:33:57.185Z,-3.88
2022-12-13T00:36:23.845Z,-3.94
2022-12-13T00:39:10.750Z,-3.94
2022-12-13T00:41:37.471Z,-3.95
2022-12-13T00:44:05.169Z,-3.98
2022-12-13T00:46:32.377Z,-4.03
2022-12-13T00:49:01.100Z,-4.24
2022-12-13T00:51:30.615Z,-4.27
2022-12-13T00:53:58.006Z,-4.20
2022-12-13T00:56:27.649Z,-4.30
2022-12-13T00:58:55.353Z,-4.36
2022-12-13T01:01:25.555Z,-4.19
2022-12-13T01:03:56.755Z,-4.16
2022-12-13T01:06:27.354Z,-4.25
2022-12-13T01:08:54.015Z,-4.07
2022-12-13T01:11:20.772Z,-4.06
2022-12-13T01:13:48.023Z,-4.03
2022-12-13T01:16:15.225Z,-4.06
2022-12-13T01:18:42.259Z,-4.07
2022-12-13T01:21:15.045Z,-4.10
2022-12-13T01:23:42.082Z,-4.09
2022-12-13T01:26:12.739Z,-4.04
2022-12-13T01:28:40.137Z,-4.00
2022-12-13T01:31:09.997Z,-4.00
2022-12-13T01:33:37.044Z,-3.96
2022-12-13T01:36:05.983Z,-3.98
2022-12-13T01:38:37.941Z,-3.98
2022-12-13T01:41:16.927Z,-4.01
2022-12-13T01:43:44.637Z,-4.00
2022-12-13T01:46:12.185Z,-4.04
2022-12-13T01:48:50.114Z,-4.06
2022-12-13T01:51:21.566Z,-4.10
2022-12-13T01:53:50.291Z,-4.36
2022-12-13T01:56:26.885Z,-4.45
2022-12-13T01:58:56.451Z,-4.35
2022-12-13T02:01:24.164Z,-4.23
2022-12-13T02:03:50.990Z,-4.35
2022-12-13T02:06:23.214Z,-4.35
2022-12-13T02:08:49.906Z,-4.29
2022-12-13T02:11:17.250Z,-4.40
2022-12-13T02:13:43.922Z,-4.36
2022-12-13T02:16:29.376Z,-4.25
2022-12-13T02:19:21.240Z,-4.57
2022-12-13T02:21:50.900Z,-4.60
2022-12-13T02:24:43.812Z,-4.52
2022-12-13T02:27:30.834Z,-4.56
2022-12-13T02:30:30.513Z,-4.49
2022-12-13T02:33:11.703Z,-4.41
2022-12-13T02:35:58.282Z,-4.62
2022-12-13T02:38:56.068Z,-4.51
2022-12-13T02:41:50.140Z,-4.39
2022-12-13T02:44:25.517Z,-4.35
2022-12-13T02:46:57.439Z,-4.29
2022-12-13T02:49:27.868Z,-4.35
2022-12-13T02:51:56.689Z,-4.39
2022-12-13T02:54:24.867Z,-4.39
2022-12-13T02:56:59.977Z,-4.35
2022-12-13T02:59:36.268Z,-4.34
2022-12-13T03:02:32.467Z,-4.22
2022-12-13T03:05:26.769Z,-4.14
2022-12-13T03:08:11.576Z,-4.23
2022-12-13T03:10:54.990Z,-4.31
2022-12-13T03:13:38.912Z,-4.42
2022-12-13T03:16:14.919Z,-4.39
2022-12-13T03:18:53.864Z,-4.41
2022-12-13T03:21:20.835Z,-4.35
2022-12-13T03:23:47.826Z,-4.49
2022-12-13T03:26:18.747Z,-4.54
2022-12-13T03:28:45.691Z,-4.48
2022-12-13T03:31:12.558Z,-4.42
2022-12-13T03:33:39.296Z,-4.45
2022-12-13T03:36:07.032Z,-4.43
2022-12-13T03:38:34.025Z,-4.47
2022-12-13T03:41:04.583Z,-4.35
2022-12-13T03:43:31.548Z,-4.36
2022-12-13T03:45:58.292Z,-4.28
2022-12-13T03:48:25.108Z,-4.47
2022-12-13T03:50:53.886Z,-4.48
2022-12-13T03:53:33.718Z,-4.37
2022-12-13T03:56:03.611Z,-4.38
2022-12-13T03:58:35.014Z,-4.36
2022-12-13T04:01:09.158Z,-4.33
2022-12-13T04:03:37.336Z,-4.35
2022-12-13T04:06:05.060Z,-4.35
2022-12-13T04:08:32.290Z,-4.27
2022-12-13T04:10:59.115Z,-4.16
2022-12-13T04:13:34.591Z,-4.14
2022-12-13T04:16:02.717Z,-4.12
2022-12-13T04:18:29.697Z,-4.12
2022-12-13T04:20:57.542Z,-4.11
2022-12-13T04:23:24.465Z,-4.09
2022-12-13T04:25:51.545Z,-4.08
2022-12-13T04:28:21.413Z,-4.09
2022-12-13T04:30:53.198Z,-4.22
2022-12-13T04:33:22.479Z,-4.22
2022-12-13T04:35:49.741Z,-4.15
2022-12-13T04:38:16.725Z,-4.23
2022-12-13T04:40:43.405Z,-4.16
2022-12-13T04:43:10.133Z,-4.06
2022-12-13T04:45:36.864Z,-4.11
2022-12-13T04:48:03.858Z,-4.10
2022-12-13T04:50:30.686Z,-4.10
2022-12-13T04:52:57.434Z,-4.07
2022-12-13T04:55:24.084Z,-4.06
2022-12-13T04:57:50.894Z,-4.07
2022-12-13T05:00:17.754Z,-4.00
2022-12-13T05:02:44.556Z,-3.91
2022-12-13T05:05:12.008Z,-3.71
2022-12-13T05:07:42.031Z,-3.82
2022-12-13T05:10:10.491Z,-3.81
2022-12-13T05:12:37.225Z,-3.81
2022-12-13T05:15:04.400Z,-3.78
2022-12-13T05:17:31.831Z,-3.77
2022-12-13T05:19:58.498Z,-3.73
2022-12-13T05:22:25.242Z,-3.69
2022-12-13T05:24:51.907Z,-3.69
2022-12-13T05:27:24.664Z,-3.68
2022-12-13T05:30:03.408Z,-3.65
2022-12-13T05:32:43.816Z,-3.45
2022-12-13T05:35:22.751Z,-3.42
2022-12-13T05:37:54.250Z,-3.43
2022-12-13T05:40:22.437Z,-3.39
2022-12-13T05:42:49.344Z,-3.43
2022-12-13T05:45:18.124Z,-3.48
2022-12-13T05:47:45.745Z,-3.27
2022-12-13T05:50:13.282Z,-3.44
2022-12-13T05:52:40.365Z,-3.41
2022-12-13T05:55:07.488Z,-3.34
2022-12-13T05:57:35.220Z,-3.45
2022-12-13T06:00:02.292Z,-3.40
2022-12-13T06:02:29.139Z,-3.43
2022-12-13T06:04:55.912Z,-3.38
2022-12-13T06:07:22.615Z,-3.38
2022-12-13T06:09:49.350Z,-3.40
2022-12-13T06:12:31.854Z,-3.24
2022-12-13T06:15:01.024Z,-3.35
2022-12-13T06:17:36.832Z,-3.24
2022-12-13T06:20:24.107Z,-3.29
2022-12-13T06:22:54.674Z,-3.27
2022-12-13T06:25:31.237Z,-3.21
2022-12-13T06:28:01.044Z,-3.17
2022-12-13T06:30:29.556Z,-3.23
2022-12-13T06:32:56.861Z,-3.28
2022-12-13T06:35:28.335Z,-3.03
2022-12-13T06:38:01.264Z,-3.10
2022-12-13T06:40:30.599Z,-3.04
2022-12-13T06:42:57.520Z,-3.19
2022-12-13T06:45:24.535Z,-3.27
2022-12-13T06:47:51.244Z,-3.36
2022-12-13T06:50:18.033Z,-3.34
2022-12-13T06:52:46.855Z,-3.26
2022-12-13T06:58:01.133Z,-3.40
2022-12-13T07:00:36.811Z,-3.24
2022-12-13T07:03:05.081Z,-3.25
2022-12-13T07:05:31.892Z,-3.49
2022-12-13T07:07:58.803Z,-3.41
2022-12-13T07:10:25.503Z,-3.14
2022-12-13T07:12:52.189Z,-3.34
2022-12-13T07:15:18.965Z,-3.40
2022-12-13T07:17:50.212Z,-3.18
2022-12-13T07:20:17.115Z,-3.23
2022-12-13T07:22:48.493Z,-3.32
2022-12-13T07:25:27.190Z,-3.40
2022-12-13T07:28:14.401Z,-3.28
2022-12-13T07:30:42.001Z,-3.36
2022-12-13T07:33:09.484Z,-3.32
2022-12-13T07:35:37.781Z,-3.26
2022-12-13T07:38:06.114Z,-3.28
2022-12-13T07:40:37.599Z,-3.31
2022-12-13T07:43:05.701Z,-3.36
2022-12-13T07:45:32.894Z,-3.42
2022-12-13T07:48:04.439Z,-3.37
2022-12-13T07:50:37.011Z,-3.50
2022-12-13T07:53:08.576Z,-3.67
2022-12-13T07:55:36.566Z,-3.80
2022-12-13T07:58:21.529Z,-3.67
2022-12-13T08:00:48.765Z,-3.57
2022-12-13T08:03:25.447Z,-3.54
2022-12-13T08:06:10.455Z,-3.53
2022-12-13T08:08:38.205Z,-3.56
2022-12-13T08:11:06.312Z,-3.58
2022-12-13T08:13:33.929Z,-3.51
2022-12-13T08:16:02.988Z,-3.63
2022-12-13T08:18:30.535Z,-3.67
2022-12-13T08:21:01.900Z,-3.69
2022-12-13T08:23:30.598Z,-3.69
2022-12-13T08:25:57.689Z,-3.66
2022-12-13T08:28:27.230Z,-3.69
2022-12-13T08:30:54.292Z,-3.61
2022-12-13T08:33:21.741Z,-3.60
2022-12-13T08:35:48.834Z,-3.66
2022-12-13T08:38:15.489Z,-3.58
2022-12-13T08:40:51.667Z,-3.45
2022-12-13T08:43:18.710Z,-3.43
2022-12-13T08:45:51.792Z,-3.27
2022-12-13T08:48:18.791Z,-3.26
2022-12-13T08:50:45.705Z,-3.14
2022-12-13T08:53:29.608Z,-3.14
2022-12-13T08:56:01.913Z,-3.00
2022-12-13T08:58:29.318Z,-2.79
2022-12-13T09:00:56.255Z,-2.79
2022-12-13T09:03:23.524Z,-2.76
2022-12-13T09:05:50.574Z,-2.64
2022-12-13T09:08:24.105Z,-2.50
2022-12-13T09:10:59.680Z,-2.30
2022-12-13T09:13:31.298Z,-2.23
2022-12-13T09:16:03.945Z,-1.88
2022-12-13T09:18:36.558Z,-1.92
2022-12-13T09:21:12.670Z,-1.71
2022-12-13T09:23:46.277Z,-1.66
2022-12-13T09:26:15.284Z,-1.64
2022-12-13T09:28:42.424Z,-1.71
2022-12-13T09:31:18.638Z,-1.50
2022-12-13T09:33:46.608Z,-1.50
2022-12-13T09:36:16.249Z,-1.55
2022-12-13T09:38:43.479Z,-1.54
2022-12-13T09:41:28.564Z,-1.58
2022-12-13T09:44:03.292Z,-1.62
2022-12-13T09:46:44.970Z,-1.48
2022-12-13T09:49:23.216Z,-1.45
2022-12-13T09:52:11.181Z,-1.39
2022-12-13T09:54:47.824Z,-1.37
2022-12-13T09:57:32.220Z,-1.33
2022-12-13T10:00:14.688Z,-1.32
2022-12-13T10:03:14.735Z,-1.23
2022-12-13T10:05:45.867Z,-1.17
2022-12-13T10:08:25.202Z,-1.02
2022-12-13T10:10:53.185Z,-1.13
2022-12-13T10:13:22.382Z,-1.07
2022-12-13T10:16:04.642Z,-1.01
2022-12-13T10:18:40.018Z,-0.96
2022-12-13T10:21:27.855Z,-0.87
2022-12-13T10:26:41.670Z,-0.68
2022-12-13T10:29:10.008Z,-0.62
2022-12-13T10:31:45.729Z,-0.66
2022-12-13T10:34:29.786Z,-0.53
2022-12-13T10:36:59.592Z,-0.60
2022-12-13T10:39:39.945Z,-0.60
2022-12-13T10:42:22.875Z,-0.61
2022-12-13T10:45:10.509Z,-0.59
2022-12-13T10:47:37.346Z,-0.50
2022-12-13T10:50:04.221Z,-0.46
2022-12-13T10:52:43.383Z,-0.49
2022-12-13T10:55:28.720Z,-0.61
2022-12-13T10:58:07.394Z,-0.64
2022-12-13T11:00:45.260Z,-0.70
2022-12-13T11:03:32.427Z,-0.59
2022-12-13T11:06:15.467Z,-0.57
2022-12-13T11:08:42.097Z,-0.69
2022-12-13T11:11:10.147Z,-0.64
2022-12-13T11:13:54.256Z,-0.56
2022-12-13T11:16:26.830Z,-0.57
2022-12-13T11:19:02.945Z,-0.52
2022-12-13T11:21:32.737Z,-0.43
2022-12-13T11:24:02.604Z,-0.51
2022-12-13T11:26:32.574Z,-0.64
2022-12-13T11:29:34.318Z,-0.32
2022-12-13T11:32:22.571Z,-0.25
2022-12-13T11:35:09.226Z,-0.24
2022-12-13T11:38:02.325Z,-0.26
2022-12-13T11:41:00.653Z,-0.29
2022-12-13T11:43:44.199Z,-0.11
2022-12-13T11:46:19.755Z,-0.22
2022-12-13T11:49:00.460Z,-0.32
2022-12-13T11:51:36.204Z,-0.33
2022-12-13T11:54:25.232Z,-0.35
2022-12-13T11:57:00.606Z,-0.25
2022-12-13T11:59:39.834Z,-0.10
2022-12-13T12:02:25.808Z,-0.16
2022-12-13T12:05:00.037Z,-0.21
2022-12-13T12:08:12.610Z,-0.23
2022-12-13T12:10:45.721Z,-0.16
2022-12-13T12:13:24.568Z,-0.14
2022-12-13T12:16:06.594Z,-0.25
2022-12-13T12:18:33.444Z,-0.13
2022-12-13T12:21:05.167Z,-0.23
2022-12-13T12:23:44.345Z,-0.12
2022-12-13T12:26:21.819Z,-0.11
2022-12-13T12:29:10.657Z,-0.08
2022-12-13T12:32:03.604Z,-0.04
2022-12-13T12:34:50.120Z,-0.08
2022-12-13T12:37:26.853Z,-0.08
2022-12-13T12:40:52.131Z,-0.15
2022-12-13T12:43:37.464Z,-0.21
2022-12-13T12:46:13.279Z,-0.11
2022-12-13T12:49:03.006Z,-0.20
2022-12-13T12:51:51.173Z,-0.28
2022-12-13T12:54:32.447Z,-0.27
2022-12-13T12:57:56.726Z,-0.20
2022-12-13T13:00:50.440Z,-0.34
2022-12-13T13:03:26.998Z,-0.33
2022-12-13T13:06:01.878Z,-0.32
2022-12-13T13:09:07.551Z,-0.40
2022-12-13T13:11:43.212Z,-0.39
2022-12-13T13:14:28.276Z,-0.37
2022-12-13T13:16:55.816Z,-0.13
2022-12-13T13:19:43.181Z,-0.07
2022-12-13T13:22:43.465Z,-0.10
2022-12-13T13:25:22.999Z,-0.03
2022-12-13T13:27:53.566Z,-0.11
2022-12-13T13:30:22.526Z,0.02
2022-12-13T13:32:51.572Z,-0.11
2022-12-13T13:35:33.515Z,-0.19
2022-12-13T13:38:05.278Z,-0.16
2022-12-13T13:40:37.142Z,-0.02
2022-12-13T13:43:06.844Z,-0.20
2022-12-13T13:45:54.569Z,-0.29
2022-12-13T13:48:36.921Z,-0.13
2022-12-13T13:51:03.562Z,-0.29
2022-12-13T13:53:42.848Z,-0.23
2022-12-13T13:56:21.679Z,-0.17
2022-12-13T13:58:51.514Z,-0.27
2022-12-13T14:01:59.642Z,-0.27
2022-12-13T14:05:06.579Z,-0.08
2022-12-13T14:07:51.266Z,-0.03
2022-12-13T14:10:37.371Z,-0.30
2022-12-13T14:13:23.121Z,-0.36
2022-12-13T14:16:27.628Z,-0.43
2022-12-13T14:19:16.805Z,-0.43
2022-12-13T14:21:52.343Z,-0.35
2022-12-13T14:24:39.695Z,-0.33
2022-12-13T14:27:18.516Z,-0.25
2022-12-13T14:29:57.852Z,-0.30
2022-12-13T14:32:31.034Z,-0.26
2022-12-13T14:34:59.514Z,-0.24
2022-12-13T14:37:56.671Z,-0.30
2022-12-13T14:40:51.810Z,-0.36
2022-12-13T14:43:32.823Z,-0.50
2022-12-13T14:46:01.248Z,-0.60
2022-12-13T14:48:33.793Z,-0.57
2022-12-13T14:51:00.565Z,-0.55
2022-12-13T14:53:43.007Z,-0.50
2022-12-13T14:56:28.267Z,-0.48
2022-12-13T14:59:01.313Z,-0.56
2022-12-13T15:01:37.184Z,-0.61
2022-12-13T15:04:22.742Z,-0.49
2022-12-13T15:06:58.630Z,-0.43
2022-12-13T15:09:29.174Z,-0.26
2022-12-13T15:12:14.580Z,-0.42
2022-12-13T15:14:45.326Z,-0.26
2022-12-13T15:17:32.322Z,-0.28
2022-12-13T15:20:00.472Z,-0.29
2022-12-13T15:22:29.639Z,-0.33
2022-12-13T15:24:58.016Z,-0.21
2022-12-13T15:27:25.650Z,-0.32
2022-12-13T15:29:54.375Z,-0.28
2022-12-13T15:32:23.295Z,-0.13
2022-12-13T15:34:51.550Z,-0.35
2022-12-13T15:37:44.657Z,-0.22
2022-12-13T15:40:15.013Z,-0.23
2022-12-13T15:42:47.111Z,-0.26
2022-12-13T15:45:23.464Z,-0.12
2022-12-13T15:47:51.227Z,-0.23
2022-12-13T15:50:35.195Z,-0.18
2022-12-13T15:53:35.937Z,-0.25
2022-12-13T15:56:09.503Z,-0.39
2022-12-13T15:58:37.253Z,-0.19
2022-12-13T16:01:06.745Z,-0.35
2022-12-13T16:03:44.644Z,-0.32
2022-12-13T16:06:18.226Z,-0.49
2022-12-13T16:08:49.442Z,-0.52
2022-12-13T16:11:26.757Z,-0.52
2022-12-13T16:13:58.229Z,-0.55
2022-12-13T16:16:31.351Z,-0.36
2022-12-13T16:19:00.616Z,-0.34
2022-12-13T16:21:28.811Z,-0.38
2022-12-13T16:23:55.467Z,-0.40
2022-12-13T16:26:26.163Z,-0.48
2022-12-13T16:28:53.878Z,-0.49
2022-12-13T16:31:25.564Z,-0.42
2022-12-13T16:33:52.666Z,-0.48
2022-12-13T16:36:19.511Z,-0.32
2022-12-13T16:38:46.327Z,-0.30
2022-12-13T16:41:14.721Z,-0.43
2022-12-13T16:43:55.924Z,-0.49
2022-12-13T16:47:13.327Z,-0.56
2022-12-13T16:49:26.589Z,-0.39
2022-12-13T16:51:54.005Z,-0.49
2022-12-13T16:54:22.337Z,-0.48
2022-12-13T16:56:50.005Z,-0.65
2022-12-13T16:59:20.157Z,-0.69
2022-12-13T17:01:47.046Z,-0.74
2022-12-13T17:04:20.528Z,-0.70
2022-12-13T17:06:50.014Z,-0.89
2022-12-13T17:09:17.617Z,-0.97
2022-12-13T17:11:44.404Z,-1.11
2022-12-13T17:14:11.476Z,-1.03
2022-12-13T17:16:38.253Z,-1.08
2022-12-13T17:19:05.235Z,-1.08
2022-12-13T17:21:32.111Z,-0.98
2022-12-13T17:24:01.104Z,-1.13
2022-12-13T17:26:29.418Z,-1.03
2022-12-13T17:28:56.382Z,-1.23
2022-12-13T17:31:23.289Z,-1.30
2022-12-13T17:33:50.196Z,-1.26
2022-12-13T17:36:17.416Z,-1.33
2022-12-13T17:38:46.548Z,-1.25
2022-12-13T17:41:14.775Z,-1.26
2022-12-13T17:43:42.974Z,-1.26
2022-12-13T17:46:17.541Z,-1.40
2022-12-13T17:48:45.612Z,-1.43
2022-12-13T17:51:14.036Z,-1.52
2022-12-13T17:53:42.314Z,-1.47
2022-12-13T17:56:12.259Z,-1.49
2022-12-13T17:58:40.106Z,-1.55
2022-12-13T18:01:15.824Z,-1.46
2022-12-13T18:03:43.299Z,-1.52
2022-12-13T18:06:10.620Z,-1.59
2022-12-13T18:08:39.422Z,-1.59
2022-12-13T18:13:55.283Z,-1.66
2022-12-13T18:16:34.110Z,-1.60
2022-12-13T18:19:08.105Z,-1.84
2022-12-13T18:21:36.648Z,-1.73
2022-12-13T18:24:04.025Z,-1.82
2022-12-13T18:26:30.764Z,-2.00
2022-12-13T18:28:57.603Z,-1.82
2022-12-13T18:31:25.456Z,-1.84
2022-12-13T18:33:53.869Z,-1.89
2022-12-13T18:36:24.188Z,-1.85
2022-12-13T18:38:51.488Z,-1.98
2022-12-13T18:41:22.138Z,-1.99
2022-12-13T18:43:55.838Z,-2.08
2022-12-13T18:46:23.008Z,-2.00
2022-12-13T18:48:49.833Z,-2.10
2022-12-13T18:51:18.284Z,-2.00
2022-12-13T18:53:45.613Z,-2.13
2022-12-13T18:56:18.736Z,-2.17
2022-12-13T18:58:46.595Z,-2.09
2022-12-13T19:01:14.562Z,-2.14
2022-12-13T19:03:43.977Z,-2.16
2022-12-13T19:06:16.682Z,-2.39
2022-12-13T19:08:43.635Z,-2.53
2022-12-13T19:11:10.916Z,-2.45
2022-12-13T19:13:37.744Z,-2.58
2022-12-13T19:16:07.883Z,-2.60
2022-12-13T19:18:35.699Z,-2.69
2022-12-13T19:21:02.690Z,-2.62
2022-12-13T19:23:29.959Z,-2.74
2022-12-13T19:25:56.958Z,-2.72
2022-12-13T19:28:23.806Z,-2.83
2022-12-13T19:30:50.503Z,-2.80
2022-12-13T19:33:18.431Z,-2.57
2022-12-13T19:35:46.953Z,-2.78
2022-12-13T19:38:13.795Z,-2.71
2022-12-13T19:40:41.943Z,-2.89
2022-12-13T19:43:09.050Z,-2.88
2022-12-13T19:45:35.903Z,-2.96
2022-12-13T19:48:02.660Z,-2.83
2022-12-13T19:50:29.867Z,-2.93
2022-12-13T19:52:56.507Z,-3.08
2022-12-13T19:55:23.207Z,-3.05
2022-12-13T19:57:50.043Z,-2.98
2022-12-13T20:00:17.398Z,-2.92
2022-12-13T20:02:44.211Z,-3.08
2022-12-13T20:05:11.354Z,-3.09
2022-12-13T20:07:38.107Z,-3.04
2022-12-13T20:10:05.935Z,-2.95
2022-12-13T20:12:37.197Z,-2.97
2022-12-13T20:15:08.689Z,-3.08
2022-12-13T20:17:35.787Z,-2.92
2022-12-13T20:20:04.028Z,-2.99
2022-12-13T20:22:31.818Z,-3.18
2022-12-13T20:24:58.660Z,-3.22
2022-12-13T20:27:26.137Z,-3.21
2022-12-13T20:29:53.542Z,-3.21
2022-12-13T20:32:21.106Z,-3.19
2022-12-13T20:34:51.737Z,-3.25
2022-12-13T20:37:21.758Z,-3.16
2022-12-13T20:39:49.118Z,-3.07
2022-12-13T20:42:15.958Z,-3.17
2022-12-13T20:44:42.566Z,-3.21
2022-12-13T20:47:09.685Z,-3.18
2022-12-13T20:49:36.533Z,-3.11
2022-12-13T20:52:03.533Z,-3.19
2022-12-13T20:54:30.327Z,-3.26
2022-12-13T20:56:57.015Z,-3.34
2022-12-13T20:59:24.113Z,-3.11
2022-12-13T21:01:50.942Z,-3.15
2022-12-13T21:04:18.281Z,-3.14
2022-12-13T21:06:44.948Z,-3.24
2022-12-13T21:09:12.085Z,-3.21
2022-12-13T21:11:41.720Z,-3.26
2022-12-13T21:14:18.779Z,-3.01
2022-12-13T21:16:59.967Z,-2.98
2022-12-13T21:19:31.889Z,-3.08
2022-12-13T21:22:02.099Z,-3.16
2022-12-13T21:24:29.539Z,-3.16
2022-12-13T21:26:56.749Z,-3.15
2022-12-13T21:29:24.248Z,-3.20
2022-12-13T21:31:51.117Z,-3.23
2022-12-13T21:34:18.565Z,-3.12
2022-12-13T21:36:47.611Z,-3.02
2022-12-13T21:39:18.652Z,-2.92
2022-12-13T21:41:45.733Z,-2.97
2022-12-13T21:44:14.989Z,-2.96
2022-12-13T21:49:29.399Z,-3.03
2022-12-13T21:51:56.101Z,-3.03
2022-12-13T21:54:22.894Z,-2.98
2022-12-13T21:57:08.909Z,-3.05
2022-12-13T21:59:35.641Z,-3.09
2022-12-13T22:02:12.604Z,-3.00
2022-12-13T22:04:53.067Z,-3.16
2022-12-13T22:07:33.798Z,-3.25
2022-12-13T22:10:01.785Z,-3.29
2022-12-13T22:12:37.125Z,-3.19
2022-12-13T22:15:06.223Z,-3.21
2022-12-13T22:17:35.990Z,-3.15
2022-12-13T22:20:13.706Z,-3.15
2022-12-13T22:22:42.465Z,-3.18
2022-12-13T22:25:09.498Z,-3.10
2022-12-13T22:27:36.479Z,-3.16
2022-12-13T22:30:03.997Z,-3.17
2022-12-13T22:32:32.207Z,-2.99
2022-12-13T22:34:59.062Z,-3.13
2022-12-13T22:37:26.327Z,-3.13
2022-12-13T22:39:53.106Z,-3.10
2022-12-13T22:42:20.514Z,-3.24
2022-12-13T22:44:47.711Z,-3.18
2022-12-13T22:47:14.427Z,-3.18
2022-12-13T22:49:41.117Z,-2.96
2022-12-13T22:52:07.923Z,-3.08
2022-12-13T22:54:34.618Z,-3.15
2022-12-13T22:57:01.269Z,-3.19
2022-12-13T22:59:28.045Z,-3.11
2022-12-13T23:02:02.663Z,-3.22
2022-12-13T23:04:30.765Z,-3.25
2022-12-13T23:06:57.532Z,-3.13
2022-12-13T23:09:24.215Z,-3.32
2022-12-13T23:12:09.614Z,-3.38
2022-12-13T23:14:36.220Z,-3.39
2022-12-13T23:17:05.846Z,-3.35
2022-12-13T23:19:49.601Z,-3.40
2022-12-13T23:22:18.933Z,-3.45
2022-12-13T23:24:45.910Z,-3.45
2022-12-13T23:27:12.658Z,-3.53
2022-12-13T23:29:39.362Z,-3.48
2022-12-13T23:32:06.151Z,-3.43
2022-12-13T23:34:32.908Z,-3.60
2022-12-13T23:36:59.576Z,-3.66
2022-12-13T23:39:26.591Z,-3.63
2022-12-13T23:41:53.256Z,-3.68
2022-12-13T23:44:19.919Z,-3.67
2022-12-13T23:46:48.517Z,-3.66
2022-12-13T23:49:16.618Z,-3.58
2022-12-13T23:51:43.423Z,-3.76
2022-12-13T23:54:15.018Z,-3.86
2022-12-13T23:56:42.004Z,-3.85
2022-12-13T23:59:08.723Z,-3.91
